Time;durP1;ratioP1;P1;durP2;ratioP2;P2;SDS_P1;SDS_P2;PMS_P1;PMS_P2;Temp;Humidity;BMP_temperature;BMP_pressure;BME280_temperature;BME280_humidity;BME280_pressure;Samples;Min_cycle;Max_cycle;Signal;HPM_P1;HPM_P2
2022/01/04 00:01:20;;;;;;;;;;;6.00;99.90;;;;;;5054052;28;19970;-84
2022/01/04 00:03:46;;;;;;;;;;;6.00;99.90;;;;;;5039286;28;19912;-84
2022/01/04 00:06:12;;;;;;;;;;;6.20;99.90;;;;;;5041797;28;19917;-84
2022/01/04 00:08:38;;;;;;;;;;;6.20;99.90;;;;;;5046549;28;19915;-84
2022/01/04 00:11:18;;;;;;;;;;;6.20;99.90;;;;;;5039640;28;20003;-84
2022/01/04 00:13:44;;;;;;;;;;;6.20;99.90;;;;;;5041138;28;19963;-85
2022/01/04 00:16:10;;;;;;;;;;;6.20;99.90;;;;;;5034503;28;20391;-84
2022/01/04 00:18:40;;;;;;;;;;;6.20;99.90;;;;;;5054706;28;19919;-84
2022/01/04 00:21:05;;;;;;;;;;;6.30;99.90;;;;;;5046268;28;20362;-84
2022/01/04 00:23:31;;;;;;;;;;;6.20;99.90;;;;;;5039878;28;19927;-85
2022/01/04 00:25:58;;;;;;;;;;;6.30;99.90;;;;;;5053862;28;19913;-84
2022/01/04 00:28:24;;;;;;;;;;;6.20;99.90;;;;;;5038298;28;19918;-84
2022/01/04 00:30:49;;;;;;;;;;;6.10;99.90;;;;;;5038974;28;20426;-85
2022/01/04 00:33:17;;;;;;;;;;;6.20;99.90;;;;;;5053983;28;20213;-84
2022/01/04 00:35:43;;;;;;;;;;;6.10;99.90;;;;;;5038139;28;20507;-85
2022/01/04 00:38:09;;;;;;;;;;;6.00;99.90;;;;;;5038009;28;19913;-85
2022/01/04 00:40:34;;;;;;;;;;;6.10;99.90;;;;;;5054665;28;19979;-84
2022/01/04 00:43:00;;;;;;;;;;;6.10;99.90;;;;;;5039802;28;20271;-85
2022/01/04 00:45:26;;;;;;;;;;;6.00;99.90;;;;;;5047026;28;19963;-84
2022/01/04 00:50:20;;;;;;;;;;;6.00;99.90;;;;;;5052343;28;19913;-84
2022/01/04 00:52:45;;;;;;;;;;;6.00;99.90;;;;;;5039676;28;20296;-85
2022/01/04 00:55:11;;;;;;;;;;;6.10;99.90;;;;;;5037688;28;20003;-84
2022/01/04 00:57:37;;;;;;;;;;;6.10;99.90;;;;;;5053191;28;19915;-85
2022/01/04 01:00:04;;;;;;;;;;;6.00;99.90;;;;;;5037719;28;20330;-85
2022/01/04 01:02:29;;;;;;;;;;;6.20;99.90;;;;;;5036453;28;20334;-85
2022/01/04 01:04:55;;;;;;;;;;;6.20;99.90;;;;;;5037259;28;19909;-86
2022/01/04 01:07:21;;;;;;;;;;;6.10;99.90;;;;;;5037991;28;19909;-85
2022/01/04 01:10:02;;;;;;;;;;;6.20;99.90;;;;;;5054342;28;19924;-85
2022/01/04 01:12:28;;;;;;;;;;;6.20;99.90;;;;;;5051960;28;20276;-85
2022/01/04 01:14:53;;;;;;;;;;;6.10;99.90;;;;;;5039647;28;19913;-86
2022/01/04 01:17:19;;;;;;;;;;;6.10;99.90;;;;;;5039882;28;19920;-85
2022/01/04 01:19:44;;;;;;;;;;;6.10;99.90;;;;;;5039642;28;19916;-85
2022/01/04 01:22:10;;;;;;;;;;;6.00;99.90;;;;;;5038497;28;19937;-85
2022/01/04 01:24:35;;;;;;;;;;;6.00;99.90;;;;;;5036783;28;19912;-85
2022/01/04 01:27:01;;;;;;;;;;;5.90;99.90;;;;;;5041615;28;19920;-85
2022/01/04 01:29:28;;;;;;;;;;;5.90;99.90;;;;;;5037941;28;20429;-85
2022/01/04 01:31:53;;;;;;;;;;;5.90;99.90;;;;;;5037476;28;20352;-85
2022/01/04 01:34:19;;;;;;;;;;;5.90;99.90;;;;;;5036868;28;19916;-85
2022/01/04 01:36:44;;;;;;;;;;;6.00;99.90;;;;;;5035039;28;19920;-85
2022/01/04 01:39:10;;;;;;;;;;;6.00;99.90;;;;;;5050652;28;19962;-85
2022/01/04 01:41:35;;;;;;;;;;;6.10;99.90;;;;;;5052017;28;20442;-85
2022/01/04 01:44:01;;;;;;;;;;;6.10;99.90;;;;;;5054793;28;19919;-85
2022/01/04 01:46:26;;;;;;;;;;;6.00;99.90;;;;;;5036767;28;19909;-85
2022/01/04 01:48:51;;;;;;;;;;;6.10;99.90;;;;;;5045508;28;20579;-85
2022/01/04 01:51:17;;;;;;;;;;;6.10;99.90;;;;;;5043995;28;20045;-85
2022/01/04 01:53:44;;;;;;;;;;;6.10;99.90;;;;;;5038125;28;20003;-85
2022/01/04 01:56:09;;;;;;;;;;;6.20;99.90;;;;;;5037055;28;19920;-85
2022/01/04 01:58:35;;;;;;;;;;;6.10;99.90;;;;;;5051697;28;19916;-85
2022/01/04 02:01:00;;;;;;;;;;;6.10;99.90;;;;;;5035873;28;19916;-85
2022/01/04 02:03:26;;;;;;;;;;;6.10;99.90;;;;;;5034931;28;20372;-85
2022/01/04 02:05:52;;;;;;;;;;;6.10;99.90;;;;;;5054803;28;19915;-85
2022/01/04 02:08:18;;;;;;;;;;;6.10;99.90;;;;;;5037570;28;20221;-85
2022/01/04 02:10:44;;;;;;;;;;;6.00;99.90;;;;;;5033756;28;20031;-85
2022/01/04 02:13:09;;;;;;;;;;;6.10;99.90;;;;;;5036734;28;19991;-84
2022/01/04 02:15:35;;;;;;;;;;;6.00;99.90;;;;;;5052962;28;19964;-85
2022/01/04 02:18:00;;;;;;;;;;;6.00;99.90;;;;;;5050207;28;19912;-85
2022/01/04 02:20:26;;;;;;;;;;;6.00;99.90;;;;;;5052851;28;19927;-85
2022/01/04 02:22:52;;;;;;;;;;;6.10;99.90;;;;;;5036261;28;19912;-86
2022/01/04 02:25:18;;;;;;;;;;;6.10;99.90;;;;;;5050293;28;20035;-85
2022/01/04 02:27:43;;;;;;;;;;;6.10;99.90;;;;;;5036813;28;20003;-85
2022/01/04 02:30:10;;;;;;;;;;;6.10;99.90;;;;;;5050178;28;19959;-84
2022/01/04 02:32:36;;;;;;;;;;;6.00;99.90;;;;;;5032591;28;19912;-84
2022/01/04 02:35:02;;;;;;;;;;;6.00;99.90;;;;;;5040705;28;20364;-85
2022/01/04 02:37:28;;;;;;;;;;;6.10;99.90;;;;;;5037806;28;19916;-85
2022/01/04 02:39:54;;;;;;;;;;;6.10;99.90;;;;;;5042400;28;20394;-85
2022/01/04 02:42:20;;;;;;;;;;;6.20;99.90;;;;;;5036707;28;19908;-85
2022/01/04 02:44:46;;;;;;;;;;;6.10;99.90;;;;;;5051372;28;19957;-85
2022/01/04 02:47:12;;;;;;;;;;;6.10;99.90;;;;;;5047301;28;19932;-84
2022/01/04 02:49:38;;;;;;;;;;;6.10;99.90;;;;;;5042909;28;20383;-84
2022/01/04 02:52:04;;;;;;;;;;;6.00;99.90;;;;;;5052052;28;19913;-84
2022/01/04 02:54:29;;;;;;;;;;;6.10;99.90;;;;;;5053066;28;19959;-84
2022/01/04 02:56:55;;;;;;;;;;;6.20;99.90;;;;;;5036382;28;19912;-83
2022/01/04 02:59:20;;;;;;;;;;;6.20;99.90;;;;;;5039290;28;19916;-84
2022/01/04 03:01:46;;;;;;;;;;;6.30;99.90;;;;;;5035931;28;20069;-84
2022/01/04 03:04:11;;;;;;;;;;;6.20;99.90;;;;;;5036987;28;19985;-84
2022/01/04 03:06:37;;;;;;;;;;;6.30;99.90;;;;;;5037526;28;20399;-84
2022/01/04 03:09:04;;;;;;;;;;;6.30;99.90;;;;;;5036984;28;19919;-84
2022/01/04 03:11:29;;;;;;;;;;;6.30;99.90;;;;;;5036858;28;19917;-84
2022/01/04 03:13:55;;;;;;;;;;;6.40;99.90;;;;;;5037353;28;19932;-85
2022/01/04 03:16:20;;;;;;;;;;;6.30;99.90;;;;;;5038341;28;19919;-84
2022/01/04 03:19:03;;;;;;;;;;;6.30;99.90;;;;;;5050941;28;20333;-85
2022/01/04 03:21:29;;;;;;;;;;;6.30;99.90;;;;;;5036026;28;20219;-85
2022/01/04 03:23:55;;;;;;;;;;;6.30;99.90;;;;;;5037838;28;20403;-84
2022/01/04 03:26:20;;;;;;;;;;;6.30;99.90;;;;;;5037882;28;19944;-84
2022/01/04 03:28:45;;;;;;;;;;;6.40;99.90;;;;;;5038902;28;19912;-84
2022/01/04 03:31:12;;;;;;;;;;;6.30;99.90;;;;;;5036589;28;19912;-84
2022/01/04 03:33:37;;;;;;;;;;;6.30;99.90;;;;;;5051983;28;20272;-84
2022/01/04 03:36:03;;;;;;;;;;;6.20;99.90;;;;;;5036941;28;19916;-84
2022/01/04 03:38:29;;;;;;;;;;;6.20;99.90;;;;;;5035749;28;19920;-85
2022/01/04 03:40:55;;;;;;;;;;;6.20;99.90;;;;;;5037820;28;19940;-84
2022/01/04 03:43:21;;;;;;;;;;;6.10;99.90;;;;;;5038423;28;20552;-84
2022/01/04 03:45:47;;;;;;;;;;;6.30;99.90;;;;;;5053419;28;19952;-85
2022/01/04 03:48:16;;;;;;;;;;;6.30;99.90;;;;;;5037524;28;19956;-84
2022/01/04 03:50:41;;;;;;;;;;;6.30;99.90;;;;;;5037096;28;20355;-85
2022/01/04 03:53:07;;;;;;;;;;;6.30;99.90;;;;;;5037226;28;19963;-85
2022/01/04 03:55:32;;;;;;;;;;;6.30;99.90;;;;;;5037132;28;19912;-85
2022/01/04 03:57:58;;;;;;;;;;;6.20;99.90;;;;;;5036257;28;20003;-85
2022/01/04 04:00:23;;;;;;;;;;;6.20;99.90;;;;;;5035437;28;19916;-85
2022/01/04 04:02:49;;;;;;;;;;;6.30;99.90;;;;;;5038406;28;19952;-85
2022/01/04 04:05:15;;;;;;;;;;;6.30;99.90;;;;;;5034762;28;19978;-84
2022/01/04 04:07:41;;;;;;;;;;;6.30;99.90;;;;;;5038205;28;20356;-84
2022/01/04 04:10:07;;;;;;;;;;;6.50;99.90;;;;;;5042486;28;19998;-85
2022/01/04 04:12:32;;;;;;;;;;;6.60;99.90;;;;;;5038264;28;19951;-85
2022/01/04 04:15:03;;;;;;;;;;;6.60;99.90;;;;;;5035011;28;19919;-85
2022/01/04 04:17:28;;;;;;;;;;;6.50;99.90;;;;;;5033676;28;20035;-85
2022/01/04 04:19:54;;;;;;;;;;;6.30;99.90;;;;;;5036078;28;19999;-85
2022/01/04 04:22:19;;;;;;;;;;;6.30;99.90;;;;;;5037038;28;20300;-85
2022/01/04 04:24:45;;;;;;;;;;;6.20;99.90;;;;;;5051867;28;19909;-85
2022/01/04 04:27:11;;;;;;;;;;;6.20;99.90;;;;;;5036531;28;19909;-85
2022/01/04 04:29:36;;;;;;;;;;;6.10;99.90;;;;;;5037689;28;19971;-85
2022/01/04 04:32:02;;;;;;;;;;;6.10;99.90;;;;;;5043758;28;19919;-85
2022/01/04 04:34:27;;;;;;;;;;;6.10;99.90;;;;;;5037649;28;19919;-85
2022/01/04 04:36:53;;;;;;;;;;;6.10;99.90;;;;;;5046976;28;19912;-85
2022/01/04 04:39:18;;;;;;;;;;;6.20;99.90;;;;;;5044672;28;20291;-85
2022/01/04 04:41:44;;;;;;;;;;;6.20;99.90;;;;;;5040841;28;19913;-85
2022/01/04 04:44:09;;;;;;;;;;;6.20;99.90;;;;;;5039580;28;19951;-87
2022/01/04 04:46:35;;;;;;;;;;;6.10;99.90;;;;;;5053065;28;20449;-88
2022/01/04 04:49:01;;;;;;;;;;;6.00;99.90;;;;;;5053872;28;19931;-86
2022/01/04 04:51:26;;;;;;;;;;;5.90;99.90;;;;;;5039707;28;19909;-86
2022/01/04 04:53:52;;;;;;;;;;;5.90;99.90;;;;;;5039310;28;19909;-86
2022/01/04 04:56:17;;;;;;;;;;;5.90;99.90;;;;;;5040396;28;20408;-86
2022/01/04 04:58:43;;;;;;;;;;;5.90;99.90;;;;;;5037525;28;19967;-86
2022/01/04 05:01:08;;;;;;;;;;;5.90;99.90;;;;;;5038704;28;19916;-86
2022/01/04 05:03:34;;;;;;;;;;;5.80;99.90;;;;;;5038759;28;19913;-86
2022/01/04 05:05:59;;;;;;;;;;;5.80;99.90;;;;;;5036756;28;19912;-86
2022/01/04 05:08:25;;;;;;;;;;;5.80;99.90;;;;;;5036057;28;19912;-85
2022/01/04 05:10:50;;;;;;;;;;;5.70;99.90;;;;;;5038542;28;19931;-85
2022/01/04 05:13:16;;;;;;;;;;;5.70;99.90;;;;;;5038793;28;20295;-86
2022/01/04 05:15:41;;;;;;;;;;;5.70;99.90;;;;;;5034986;28;19920;-85
2022/01/04 05:18:08;;;;;;;;;;;5.70;99.90;;;;;;5039263;28;20018;-86
2022/01/04 05:20:34;;;;;;;;;;;5.70;99.90;;;;;;5052005;28;19916;-85
2022/01/04 05:22:59;;;;;;;;;;;5.70;99.90;;;;;;5039243;28;19912;-86
2022/01/04 05:25:25;;;;;;;;;;;5.70;99.90;;;;;;5053185;28;19922;-86
2022/01/04 05:27:50;;;;;;;;;;;5.60;99.90;;;;;;5037193;28;20454;-86
2022/01/04 05:30:16;;;;;;;;;;;5.60;99.90;;;;;;5038674;28;19913;-86
2022/01/04 05:32:41;;;;;;;;;;;5.60;99.90;;;;;;5052767;28;20316;-86
2022/01/04 05:35:07;;;;;;;;;;;5.60;99.90;;;;;;5053709;28;19935;-85
2022/01/04 05:37:32;;;;;;;;;;;5.60;99.90;;;;;;5043069;28;20215;-85
2022/01/04 05:39:58;;;;;;;;;;;5.50;99.90;;;;;;5039671;28;19916;-85
2022/01/04 05:42:23;;;;;;;;;;;5.50;99.90;;;;;;5037092;28;19920;-85
2022/01/04 05:44:49;;;;;;;;;;;5.60;99.90;;;;;;5050349;28;19909;-85
2022/01/04 05:47:15;;;;;;;;;;;5.60;99.90;;;;;;5035884;28;19935;-87
2022/01/04 05:49:40;;;;;;;;;;;5.60;99.90;;;;;;5042581;28;19913;-84
2022/01/04 05:52:06;;;;;;;;;;;5.60;99.90;;;;;;5048547;28;20288;-84
2022/01/04 05:54:32;;;;;;;;;;;5.70;99.90;;;;;;5034891;28;19965;-87
2022/01/04 05:56:57;;;;;;;;;;;5.70;99.90;;;;;;5050649;28;19908;-85
2022/01/04 05:59:23;;;;;;;;;;;5.70;99.90;;;;;;5052284;28;20007;-86
2022/01/04 06:01:49;;;;;;;;;;;5.70;99.90;;;;;;5035380;28;19913;-86
2022/01/04 06:04:14;;;;;;;;;;;5.70;99.90;;;;;;5038588;28;20352;-86
2022/01/04 06:06:41;;;;;;;;;;;5.70;99.90;;;;;;5054762;28;19921;-86
2022/01/04 06:09:09;;;;;;;;;;;5.70;99.90;;;;;;5051531;28;20269;-86
2022/01/04 06:16:50;;;;;;;;;;;5.80;99.90;;;;;;5052418;28;20252;-86
2022/01/04 06:19:16;;;;;;;;;;;5.70;99.90;;;;;;5052893;28;19916;-84
2022/01/04 06:21:41;;;;;;;;;;;5.70;99.90;;;;;;5039513;28;19919;-85
2022/01/04 06:24:07;;;;;;;;;;;5.70;99.90;;;;;;5040106;28;19919;-86
2022/01/04 06:26:32;;;;;;;;;;;5.70;99.90;;;;;;5035638;28;19916;-82
2022/01/04 06:29:00;;;;;;;;;;;5.70;99.90;;;;;;5025599;28;19919;-84
2022/01/04 06:31:27;;;;;;;;;;;5.70;99.90;;;;;;5041395;28;20392;-84
2022/01/04 06:33:53;;;;;;;;;;;5.80;99.90;;;;;;5037410;28;19913;-86
2022/01/04 06:36:18;;;;;;;;;;;5.70;99.90;;;;;;5049399;28;20383;-85
2022/01/04 06:38:44;;;;;;;;;;;5.80;99.90;;;;;;5037779;28;19916;-86
2022/01/04 06:41:09;;;;;;;;;;;5.80;99.90;;;;;;5036173;28;20395;-86
2022/01/04 06:43:34;;;;;;;;;;;5.80;99.90;;;;;;5036683;28;19932;-86
2022/01/04 06:46:00;;;;;;;;;;;5.80;99.90;;;;;;5050446;28;20047;-86
2022/01/04 06:48:25;;;;;;;;;;;5.90;99.90;;;;;;5042862;28;19966;-87
2022/01/04 06:50:51;;;;;;;;;;;5.90;99.90;;;;;;5053244;28;19912;-86
2022/01/04 06:53:17;;;;;;;;;;;5.90;99.90;;;;;;5035497;28;19908;-85
2022/01/04 06:55:42;;;;;;;;;;;5.90;99.90;;;;;;5052059;28;19937;-89
2022/01/04 06:58:08;;;;;;;;;;;6.00;99.90;;;;;;5056722;28;19908;-89
2022/01/04 07:00:34;;;;;;;;;;;6.20;99.90;;;;;;5028679;28;19991;-87
2022/01/04 07:02:59;;;;;;;;;;;6.30;99.90;;;;;;5052122;28;19912;-83
2022/01/04 07:05:25;;;;;;;;;;;6.30;99.90;;;;;;5034492;28;19917;-84
2022/01/04 07:07:53;;;;;;;;;;;6.30;99.90;;;;;;5052339;28;19919;-83
2022/01/04 07:10:18;;;;;;;;;;;6.20;99.90;;;;;;5034602;28;19933;-82
2022/01/04 07:12:44;;;;;;;;;;;6.30;99.90;;;;;;5035890;28;19934;-82
2022/01/04 07:15:09;;;;;;;;;;;6.30;99.90;;;;;;5032242;28;20351;-82
2022/01/04 07:17:37;;;;;;;;;;;6.30;99.90;;;;;;5051156;28;19912;-83
2022/01/04 07:20:03;;;;;;;;;;;6.30;99.90;;;;;;5041685;28;19999;-83
2022/01/04 07:22:29;;;;;;;;;;;6.30;99.90;;;;;;5050605;28;20003;-83
2022/01/04 07:24:54;;;;;;;;;;;6.30;99.90;;;;;;5038341;28;19973;-83
2022/01/04 07:27:20;;;;;;;;;;;6.30;99.90;;;;;;5035398;28;19997;-83
2022/01/04 07:29:45;;;;;;;;;;;6.30;99.90;;;;;;5035431;28;19912;-82
2022/01/04 07:32:10;;;;;;;;;;;6.30;99.90;;;;;;5035189;28;20385;-82
2022/01/04 07:34:36;;;;;;;;;;;6.40;99.90;;;;;;5035712;28;19908;-82
2022/01/04 07:37:02;;;;;;;;;;;6.40;99.90;;;;;;5049931;28;20280;-83
2022/01/04 07:39:27;;;;;;;;;;;6.40;99.90;;;;;;5051725;28;20295;-82
2022/01/04 07:41:54;;;;;;;;;;;6.50;99.90;;;;;;5035661;28;19919;-82
2022/01/04 07:44:19;;;;;;;;;;;6.40;99.90;;;;;;5033564;28;19919;-83
2022/01/04 07:46:45;;;;;;;;;;;6.40;99.90;;;;;;5033686;28;20291;-82
2022/01/04 07:49:10;;;;;;;;;;;6.50;99.90;;;;;;5047534;28;20241;-82
2022/01/04 07:51:36;;;;;;;;;;;6.50;99.90;;;;;;5036837;28;19966;-82
2022/01/04 07:54:04;;;;;;;;;;;6.50;99.90;;;;;;5051853;28;20352;-82
2022/01/04 07:56:30;;;;;;;;;;;6.60;99.90;;;;;;5036292;28;20604;-82
2022/01/04 07:59:00;;;;;;;;;;;6.60;99.90;;;;;;5034017;28;19919;-83
2022/01/04 08:01:27;;;;;;;;;;;6.70;99.90;;;;;;5037721;28;19913;-84
2022/01/04 08:03:52;;;;;;;;;;;6.70;99.90;;;;;;5037886;28;19920;-83
2022/01/04 08:06:18;;;;;;;;;;;6.70;99.90;;;;;;5033696;28;19912;-84
2022/01/04 08:08:43;;;;;;;;;;;6.70;99.90;;;;;;5024371;28;19923;-83
2022/01/04 08:11:09;;;;;;;;;;;6.70;99.90;;;;;;5033268;28;20377;-83
2022/01/04 08:13:34;;;;;;;;;;;6.70;99.90;;;;;;5052403;28;19967;-83
2022/01/04 08:16:00;;;;;;;;;;;6.70;99.90;;;;;;5039290;28;20391;-83
2022/01/04 08:18:25;;;;;;;;;;;6.70;99.90;;;;;;5038423;28;19912;-83
2022/01/04 08:20:56;;;;;;;;;;;6.80;99.90;;;;;;5042221;28;19999;-85
2022/01/04 08:23:25;;;;;;;;;;;6.80;99.90;;;;;;5039141;28;19920;-83
2022/01/04 08:25:51;;;;;;;;;;;6.70;99.90;;;;;;5038212;28;19920;-84
2022/01/04 08:28:17;;;;;;;;;;;6.80;99.90;;;;;;5037116;28;19917;-84
2022/01/04 08:30:43;;;;;;;;;;;6.90;99.90;;;;;;5056166;28;19920;-84
2022/01/04 08:33:09;;;;;;;;;;;6.90;99.90;;;;;;5054165;28;19958;-83
2022/01/04 08:35:35;;;;;;;;;;;6.90;99.90;;;;;;5042095;28;19917;-83
2022/01/04 08:38:00;;;;;;;;;;;6.90;99.90;;;;;;5037250;28;20371;-83
2022/01/04 08:40:26;;;;;;;;;;;6.90;99.90;;;;;;5042699;28;19923;-83
2022/01/04 08:42:52;;;;;;;;;;;6.90;99.90;;;;;;5034785;28;19913;-83
2022/01/04 08:45:17;;;;;;;;;;;7.00;99.90;;;;;;5042085;28;19917;-83
2022/01/04 08:47:43;;;;;;;;;;;6.90;99.90;;;;;;5055693;28;20338;-84
2022/01/04 08:50:10;;;;;;;;;;;7.00;99.90;;;;;;5040797;28;19993;-83
2022/01/04 08:52:36;;;;;;;;;;;6.90;99.90;;;;;;5036818;28;20360;-84
2022/01/04 08:55:02;;;;;;;;;;;7.00;99.90;;;;;;5038206;28;19919;-85
2022/01/04 08:57:27;;;;;;;;;;;7.00;99.90;;;;;;5053001;28;19913;-84
2022/01/04 08:59:54;;;;;;;;;;;7.10;99.90;;;;;;5038973;28;19923;-83
2022/01/04 09:02:20;;;;;;;;;;;7.00;99.90;;;;;;5038501;28;20049;-82
2022/01/04 09:04:46;;;;;;;;;;;7.00;99.90;;;;;;5038381;28;19955;-85
2022/01/04 09:07:11;;;;;;;;;;;7.00;99.90;;;;;;5037725;28;20282;-85
2022/01/04 09:09:39;;;;;;;;;;;7.10;99.90;;;;;;5036937;28;19924;-85
2022/01/04 09:12:04;;;;;;;;;;;7.10;99.90;;;;;;5040209;28;19912;-83
2022/01/04 09:14:42;;;;;;;;;;;7.20;99.90;;;;;;5040796;28;19912;-83
2022/01/04 09:19:52;;;;;;;;;;;7.20;99.90;;;;;;5053144;28;20378;-83
2022/01/04 09:22:18;;;;;;;;;;;7.20;99.90;;;;;;5037944;28;19920;-83
2022/01/04 09:24:43;;;;;;;;;;;7.20;99.90;;;;;;5039283;28;20666;-83
2022/01/04 09:27:10;;;;;;;;;;;7.20;99.90;;;;;;5037368;28;20273;-83
2022/01/04 09:29:35;;;;;;;;;;;7.20;99.90;;;;;;5037262;28;19917;-83
2022/01/04 09:32:02;;;;;;;;;;;7.20;99.90;;;;;;5037140;28;20216;-83
2022/01/04 09:34:28;;;;;;;;;;;7.40;99.90;;;;;;5038513;28;20280;-83
2022/01/04 09:36:54;;;;;;;;;;;7.60;99.90;;;;;;5038953;28;19912;-84
2022/01/04 09:39:21;;;;;;;;;;;7.70;99.90;;;;;;5037878;28;19917;-84
2022/01/04 09:41:47;;;;;;;;;;;7.60;99.90;;;;;;5040337;28;19908;-83
2022/01/04 09:44:13;;;;;;;;;;;7.50;99.90;;;;;;5039337;28;20078;-83
2022/01/04 09:46:39;;;;;;;;;;;7.40;99.90;;;;;;5036336;28;19913;-83
2022/01/04 09:49:05;;;;;;;;;;;7.30;99.90;;;;;;5041238;28;19959;-84
2022/01/04 09:51:31;;;;;;;;;;;7.30;99.90;;;;;;5036888;28;19912;-85
2022/01/04 09:53:57;;;;;;;;;;;7.30;99.90;;;;;;5039234;28;20396;-84
2022/01/04 09:56:24;;;;;;;;;;;7.30;99.90;;;;;;5037466;28;19913;-84
2022/01/04 09:58:51;;;;;;;;;;;7.20;99.90;;;;;;5037651;28;19913;-85
2022/01/04 10:01:27;;;;;;;;;;;7.20;99.90;;;;;;5036819;28;20673;-84
2022/01/04 10:03:53;;;;;;;;;;;7.10;99.90;;;;;;5035372;28;20049;-84
2022/01/04 10:06:19;;;;;;;;;;;7.10;99.90;;;;;;5055400;28;19919;-84
2022/01/04 10:09:12;;;;;;;;;;;7.10;99.90;;;;;;5039452;28;19917;-84
2022/01/04 10:11:44;;;;;;;;;;;7.10;99.90;;;;;;5043663;28;19921;-84
2022/01/04 10:14:23;;;;;;;;;;;6.90;99.90;;;;;;5055516;28;19908;-84
2022/01/04 10:16:49;;;;;;;;;;;6.90;99.90;;;;;;5036976;28;19919;-85
2022/01/04 10:19:25;;;;;;;;;;;6.90;99.90;;;;;;5039104;28;20042;-85
2022/01/04 10:22:08;;;;;;;;;;;6.80;99.90;;;;;;5035343;28;19919;-84
2022/01/04 10:24:34;;;;;;;;;;;6.80;99.90;;;;;;5035339;28;20327;-83
2022/01/04 10:27:19;;;;;;;;;;;6.80;99.90;;;;;;5051413;28;19978;-83
2022/01/04 10:29:48;;;;;;;;;;;6.70;99.90;;;;;;5038935;28;19946;-83
2022/01/04 10:32:14;;;;;;;;;;;6.80;99.90;;;;;;5040633;28;19917;-83
2022/01/04 10:34:46;;;;;;;;;;;6.70;99.90;;;;;;5037172;28;19916;-85
2022/01/04 10:37:30;;;;;;;;;;;6.80;99.90;;;;;;5036431;28;19916;-84
2022/01/04 10:40:06;;;;;;;;;;;6.80;99.90;;;;;;5057193;28;20011;-84
2022/01/04 10:42:31;;;;;;;;;;;6.80;99.90;;;;;;5043865;28;19999;-84
2022/01/04 10:44:57;;;;;;;;;;;6.80;99.90;;;;;;5035787;28;19976;-85
2022/01/04 10:47:26;;;;;;;;;;;6.80;99.90;;;;;;5039167;28;19912;-85
2022/01/04 10:49:52;;;;;;;;;;;6.80;99.90;;;;;;5043149;28;19913;-85
2022/01/04 10:52:22;;;;;;;;;;;6.80;99.90;;;;;;5050033;28;20335;-85
2022/01/04 10:55:06;;;;;;;;;;;6.90;99.90;;;;;;5038160;28;19912;-85
2022/01/04 10:57:34;;;;;;;;;;;6.90;99.90;;;;;;5039294;28;20154;-84
2022/01/04 11:00:13;;;;;;;;;;;6.90;99.90;;;;;;5037324;28;19931;-85
2022/01/04 11:02:39;;;;;;;;;;;6.90;99.90;;;;;;5050439;28;20005;-84
2022/01/04 11:05:14;;;;;;;;;;;6.90;99.90;;;;;;5035234;28;19944;-84
2022/01/04 11:07:59;;;;;;;;;;;6.80;99.90;;;;;;5035476;28;19963;-85
2022/01/04 11:10:25;;;;;;;;;;;6.80;99.90;;;;;;5033758;28;19927;-84
2022/01/04 11:12:51;;;;;;;;;;;6.90;99.90;;;;;;5034732;28;20452;-85
2022/01/04 11:15:17;;;;;;;;;;;6.90;99.90;;;;;;5036289;28;20321;-84
2022/01/04 11:17:42;;;;;;;;;;;6.80;99.90;;;;;;5034762;28;19921;-86
2022/01/04 11:20:08;;;;;;;;;;;6.80;99.90;;;;;;5026864;28;19966;-86
2022/01/04 11:22:35;;;;;;;;;;;6.80;99.90;;;;;;5035098;28;19915;-86
2022/01/04 11:25:01;;;;;;;;;;;6.80;99.90;;;;;;5052048;28;19936;-86
2022/01/04 11:27:27;;;;;;;;;;;6.80;99.90;;;;;;5035737;28;19913;-87
2022/01/04 11:29:56;;;;;;;;;;;6.80;99.90;;;;;;5037821;28;19993;-86
2022/01/04 11:32:22;;;;;;;;;;;6.70;99.90;;;;;;5035771;28;19912;-86
2022/01/04 11:35:02;;;;;;;;;;;6.80;99.90;;;;;;5035491;28;19934;-86
2022/01/04 11:37:28;;;;;;;;;;;6.80;99.90;;;;;;5035186;28;19916;-86
2022/01/04 11:39:54;;;;;;;;;;;6.80;99.90;;;;;;5036000;28;19917;-86
2022/01/04 11:42:31;;;;;;;;;;;6.70;99.90;;;;;;5032433;28;19913;-86
2022/01/04 11:44:57;;;;;;;;;;;6.80;99.90;;;;;;5048944;28;19963;-86
2022/01/04 11:47:25;;;;;;;;;;;6.70;99.90;;;;;;5050544;28;19913;-86
2022/01/04 11:50:10;;;;;;;;;;;6.80;99.90;;;;;;5039000;28;19965;-86
2022/01/04 11:52:41;;;;;;;;;;;6.70;99.90;;;;;;5032370;28;19938;-86
2022/01/04 11:55:25;;;;;;;;;;;6.70;99.90;;;;;;5041067;28;19908;-85
2022/01/04 11:57:52;;;;;;;;;;;6.70;99.90;;;;;;5055873;28;20712;-84
2022/01/04 12:00:34;;;;;;;;;;;6.70;99.90;;;;;;5044769;28;19966;-84
2022/01/04 12:03:07;;;;;;;;;;;6.70;99.90;;;;;;5040625;28;19932;-85
2022/01/04 12:05:35;;;;;;;;;;;6.80;99.90;;;;;;5046042;28;20316;-85
2022/01/04 12:08:13;;;;;;;;;;;6.80;99.90;;;;;;5046760;28;19912;-85
2022/01/04 12:10:39;;;;;;;;;;;6.80;99.90;;;;;;5039899;28;19921;-85
2022/01/04 12:13:06;;;;;;;;;;;6.80;99.90;;;;;;5038644;28;19973;-85
2022/01/04 12:15:34;;;;;;;;;;;6.90;99.90;;;;;;5041231;28;19908;-85
2022/01/04 12:17:59;;;;;;;;;;;6.90;99.90;;;;;;5054485;28;19912;-85
2022/01/04 12:20:43;;;;;;;;;;;6.80;99.90;;;;;;5054372;28;19966;-84
2022/01/04 12:23:30;;;;;;;;;;;6.80;99.90;;;;;;5036175;28;20339;-85
2022/01/04 12:26:16;;;;;;;;;;;6.90;99.90;;;;;;5052103;28;19913;-85
2022/01/04 12:28:43;;;;;;;;;;;6.80;99.90;;;;;;5033019;28;19916;-84
2022/01/04 12:31:23;;;;;;;;;;;6.80;99.90;;;;;;5040109;28;19909;-84
2022/01/04 12:33:55;;;;;;;;;;;6.80;99.90;;;;;;5053504;28;19909;-83
2022/01/04 12:36:23;;;;;;;;;;;6.80;99.90;;;;;;5044992;28;19952;-84
2022/01/04 12:38:49;;;;;;;;;;;6.80;99.90;;;;;;5046476;28;19915;-84
2022/01/04 12:41:15;;;;;;;;;;;6.90;99.90;;;;;;5038460;28;25266;-84
2022/01/04 12:43:42;;;;;;;;;;;6.90;99.90;;;;;;5036030;28;19915;-84
2022/01/04 12:46:07;;;;;;;;;;;7.00;99.90;;;;;;5038229;28;20363;-83
2022/01/04 12:48:47;;;;;;;;;;;7.00;99.90;;;;;;5039955;28;19919;-85
2022/01/04 12:51:32;;;;;;;;;;;7.00;99.90;;;;;;5038091;28;20302;-85
2022/01/04 12:53:59;;;;;;;;;;;6.90;99.90;;;;;;5037827;28;19955;-84
2022/01/04 12:56:28;;;;;;;;;;;6.90;99.90;;;;;;5040104;28;19919;-84
2022/01/04 12:58:55;;;;;;;;;;;6.90;99.90;;;;;;5038698;28;19915;-84
2022/01/04 13:01:24;;;;;;;;;;;6.90;99.90;;;;;;5044543;28;19917;-85
2022/01/04 13:03:50;;;;;;;;;;;6.90;99.90;;;;;;5039295;28;20414;-84
2022/01/04 13:06:15;;;;;;;;;;;6.90;99.90;;;;;;5038938;28;19924;-84
2022/01/04 13:08:41;;;;;;;;;;;6.90;99.90;;;;;;5037872;28;19915;-84
2022/01/04 13:11:07;;;;;;;;;;;6.90;99.90;;;;;;5050661;28;19928;-84
2022/01/04 13:13:33;;;;;;;;;;;6.90;99.90;;;;;;5035718;28;20328;-84
2022/01/04 13:16:17;;;;;;;;;;;6.90;99.90;;;;;;5055128;28;19920;-85
2022/01/04 13:18:46;;;;;;;;;;;7.00;99.90;;;;;;5050919;28;20372;-85
2022/01/04 13:21:11;;;;;;;;;;;6.90;99.90;;;;;;5039528;28;19916;-85
2022/01/04 13:23:37;;;;;;;;;;;6.90;99.90;;;;;;5055458;28;19967;-84
2022/01/04 13:26:03;;;;;;;;;;;7.00;99.90;;;;;;5053523;28;19913;-84
2022/01/04 13:28:29;;;;;;;;;;;7.00;99.90;;;;;;5038296;28;19987;-84
2022/01/04 13:30:54;;;;;;;;;;;7.00;99.90;;;;;;5051910;28;19909;-85
2022/01/04 13:33:23;;;;;;;;;;;7.00;99.90;;;;;;5034268;28;19913;-85
2022/01/04 13:35:49;;;;;;;;;;;7.10;99.90;;;;;;5048688;28;19912;-85
2022/01/04 13:38:21;;;;;;;;;;;7.10;99.90;;;;;;5053403;28;20038;-85
2022/01/04 13:40:47;;;;;;;;;;;7.00;99.90;;;;;;5037685;28;19916;-85
2022/01/04 13:43:13;;;;;;;;;;;7.00;99.90;;;;;;5039028;28;19940;-85
2022/01/04 13:45:50;;;;;;;;;;;7.00;99.90;;;;;;5036168;28;19913;-85
2022/01/04 13:48:24;;;;;;;;;;;7.00;99.90;;;;;;5052085;28;20391;-85
2022/01/04 13:50:50;;;;;;;;;;;7.00;99.90;;;;;;5039090;28;20364;-85
2022/01/04 13:53:16;;;;;;;;;;;7.00;99.90;;;;;;5051683;28;19917;-85
2022/01/04 13:55:47;;;;;;;;;;;7.00;99.90;;;;;;5037930;28;19988;-85
2022/01/04 13:58:33;;;;;;;;;;;7.00;99.90;;;;;;5037355;28;19917;-84
2022/01/04 14:01:09;;;;;;;;;;;7.00;99.90;;;;;;5028301;28;19923;-84
2022/01/04 14:03:35;;;;;;;;;;;7.00;99.90;;;;;;5053154;28;20756;-86
2022/01/04 14:06:03;;;;;;;;;;;7.00;99.90;;;;;;5035009;28;19909;-86
2022/01/04 14:08:47;;;;;;;;;;;7.00;99.90;;;;;;5035496;28;19982;-84
2022/01/04 14:11:20;;;;;;;;;;;7.00;99.90;;;;;;5035127;28;20398;-85
2022/01/04 14:13:48;;;;;;;;;;;7.00;99.90;;;;;;5051646;28;19947;-84
2022/01/04 14:16:14;;;;;;;;;;;7.00;99.90;;;;;;5037099;28;19909;-83
2022/01/04 14:18:58;;;;;;;;;;;7.00;99.90;;;;;;5036061;28;20362;-84
2022/01/04 14:21:37;;;;;;;;;;;7.00;99.90;;;;;;5032182;28;20384;-84
2022/01/04 14:24:23;;;;;;;;;;;7.00;99.90;;;;;;5043408;28;19948;-84
2022/01/04 14:26:48;;;;;;;;;;;7.00;99.90;;;;;;5035897;28;19970;-84
2022/01/04 14:29:25;;;;;;;;;;;7.00;99.90;;;;;;5024678;28;19951;-84
2022/01/04 14:31:50;;;;;;;;;;;7.00;99.90;;;;;;5035612;28;19912;-85
2022/01/04 14:34:16;;;;;;;;;;;7.00;99.90;;;;;;5035423;28;19912;-85
2022/01/04 14:36:41;;;;;;;;;;;6.90;99.90;;;;;;5052036;28;19966;-86
2022/01/04 14:39:12;;;;;;;;;;;6.90;99.90;;;;;;5039556;28;19919;-86
2022/01/04 14:41:38;;;;;;;;;;;6.90;99.90;;;;;;5051274;28;19913;-87
2022/01/04 14:44:03;;;;;;;;;;;6.90;99.90;;;;;;5042960;28;19912;-88